sensor_id;sensor_type;location;lat;lon;timestamp;pressure;altitude;pressure_sealevel;temperature;humidity
69247;BME280;56358;56.328;43.992;2023-04-05T00:00:36;100706.41;;;6.80;63.53
69247;BME280;56358;56.328;43.992;2023-04-05T00:02:37;100700.91;;;6.83;63.32
69247;BME280;56358;56.328;43.992;2023-04-05T00:04:39;100710.44;;;6.87;63.57
69247;BME280;56358;56.328;43.992;2023-04-05T00:06:49;100708.25;;;6.94;62.91
69247;BME280;56358;56.328;43.992;2023-04-05T00:08:52;100723.97;;;6.99;62.42
69247;BME280;56358;56.328;43.992;2023-04-05T00:10:54;100732.75;;;7.01;62.10
69247;BME280;56358;56.328;43.992;2023-04-05T00:12:56;100716.50;;;6.90;61.92
69247;BME280;56358;56.328;43.992;2023-04-05T00:14:57;100714.31;;;6.82;62.11
69247;BME280;56358;56.328;43.992;2023-04-05T00:16:57;100717.97;;;6.65;62.55
69247;BME280;56358;56.328;43.992;2023-04-05T00:18:58;100737.63;;;6.78;62.85
69247;BME280;56358;56.328;43.992;2023-04-05T00:20:59;100641.91;;;6.29;63.30
69247;BME280;56358;56.328;43.992;2023-04-05T00:23:00;100731.16;;;6.82;62.98
69247;BME280;56358;56.328;43.992;2023-04-05T00:25:04;100730.22;;;6.83;63.13
69247;BME280;56358;56.328;43.992;2023-04-05T00:27:04;100701.44;;;6.74;62.80
69247;BME280;56358;56.328;43.992;2023-04-05T00:29:05;100720.22;;;6.87;62.68
69247;BME280;56358;56.328;43.992;2023-04-05T00:31:06;100721.00;;;6.89;62.85
69247;BME280;56358;56.328;43.992;2023-04-05T00:33:06;100721.84;;;6.90;62.97
69247;BME280;56358;56.328;43.992;2023-04-05T00:35:07;100701.66;;;6.85;62.89
69247;BME280;56358;56.328;43.992;2023-04-05T00:37:08;100713.50;;;6.96;62.97
69247;BME280;56358;56.328;43.992;2023-04-05T00:39:09;100624.25;;;6.42;63.14
69247;BME280;56358;56.328;43.992;2023-04-05T00:41:10;100718.47;;;7.02;62.80
69247;BME280;56358;56.328;43.992;2023-04-05T00:43:11;100726.47;;;7.02;62.57
69247;BME280;56358;56.328;43.992;2023-04-05T00:45:12;100717.41;;;7.04;62.30
69247;BME280;56358;56.328;43.992;2023-04-05T00:47:13;100720.06;;;7.04;62.18
69247;BME280;56358;56.328;43.992;2023-04-05T00:49:13;100725.78;;;6.98;61.88
69247;BME280;56358;56.328;43.992;2023-04-05T00:51:14;100722.09;;;7.01;62.01
69247;BME280;56358;56.328;43.992;2023-04-05T00:53:20;100723.97;;;6.99;61.71
69247;BME280;56358;56.328;43.992;2023-04-05T00:55:21;100665.81;;;6.61;61.74
69247;BME280;56358;56.328;43.992;2023-04-05T00:57:22;100726.03;;;6.79;62.25
69247;BME280;56358;56.328;43.992;2023-04-05T00:59:25;100706.88;;;6.73;61.93
69247;BME280;56358;56.328;43.992;2023-04-05T01:01:26;100639.56;;;6.23;62.33
69247;BME280;56358;56.328;43.992;2023-04-05T01:03:30;100638.13;;;6.17;62.48
69247;BME280;56358;56.328;43.992;2023-04-05T01:07:44;100729.31;;;6.52;63.58
69247;BME280;56358;56.328;43.992;2023-04-05T01:09:55;100733.97;;;6.49;63.48
69247;BME280;56358;56.328;43.992;2023-04-05T01:11:57;100712.91;;;6.44;63.82
69247;BME280;56358;56.328;43.992;2023-04-05T01:14:01;100696.00;;;6.29;63.68
69247;BME280;56358;56.328;43.992;2023-04-05T01:16:01;100712.22;;;6.41;63.66
69247;BME280;56358;56.328;43.992;2023-04-05T01:18:02;100715.84;;;6.40;63.77
69247;BME280;56358;56.328;43.992;2023-04-05T01:20:06;100733.03;;;6.34;64.13
69247;BME280;56358;56.328;43.992;2023-04-05T01:22:35;100642.56;;;5.84;63.87
69247;BME280;56358;56.328;43.992;2023-04-05T01:27:21;100736.13;;;6.26;63.84
69247;BME280;56358;56.328;43.992;2023-04-05T01:29:42;100729.16;;;6.24;64.05
69247;BME280;56358;56.328;43.992;2023-04-05T01:31:49;100653.38;;;5.65;64.15
69247;BME280;56358;56.328;43.992;2023-04-05T01:34:01;100745.53;;;6.16;64.32
69247;BME280;56358;56.328;43.992;2023-04-05T01:38:08;100744.25;;;6.07;65.19
69247;BME280;56358;56.328;43.992;2023-04-05T01:40:11;100738.94;;;6.07;64.66
69247;BME280;56358;56.328;43.992;2023-04-05T01:42:12;100723.75;;;5.92;65.30
69247;BME280;56358;56.328;43.992;2023-04-05T01:44:14;100736.53;;;6.02;65.35
69247;BME280;56358;56.328;43.992;2023-04-05T01:46:14;100734.03;;;5.99;65.44
69247;BME280;56358;56.328;43.992;2023-04-05T01:48:15;100738.50;;;5.99;65.38
69247;BME280;56358;56.328;43.992;2023-04-05T01:50:16;100663.81;;;5.52;65.22
69247;BME280;56358;56.328;43.992;2023-04-05T01:52:16;100733.31;;;5.96;65.47
69247;BME280;56358;56.328;43.992;2023-04-05T01:54:17;100739.34;;;5.99;64.94
69247;BME280;56358;56.328;43.992;2023-04-05T01:56:18;100745.06;;;5.92;65.10
69247;BME280;56358;56.328;43.992;2023-04-05T01:58:18;100742.31;;;5.93;65.24
69247;BME280;56358;56.328;43.992;2023-04-05T02:00:19;100746.50;;;5.97;65.19
69247;BME280;56358;56.328;43.992;2023-04-05T02:02:20;100741.19;;;5.97;65.28
69247;BME280;56358;56.328;43.992;2023-04-05T02:04:21;100761.59;;;5.98;65.26
69247;BME280;56358;56.328;43.992;2023-04-05T02:06:22;100750.00;;;5.99;65.29
69247;BME280;56358;56.328;43.992;2023-04-05T02:08:22;100692.47;;;5.63;65.11
69247;BME280;56358;56.328;43.992;2023-04-05T02:10:23;100750.78;;;6.01;65.22
69247;BME280;56358;56.328;43.992;2023-04-05T02:12:24;100730.56;;;5.97;65.14
69247;BME280;56358;56.328;43.992;2023-04-05T02:14:25;100658.66;;;5.49;64.83
69247;BME280;56358;56.328;43.992;2023-04-05T02:16:25;100749.50;;;6.09;64.91
69247;BME280;56358;56.328;43.992;2023-04-05T02:18:26;100737.41;;;6.03;64.93
69247;BME280;56358;56.328;43.992;2023-04-05T02:20:30;100747.44;;;6.14;64.98
69247;BME280;56358;56.328;43.992;2023-04-05T02:22:32;100665.13;;;5.61;65.13
69247;BME280;56358;56.328;43.992;2023-04-05T02:24:33;100762.81;;;6.25;65.05
69247;BME280;56358;56.328;43.992;2023-04-05T02:26:34;100766.09;;;6.30;64.99
69247;BME280;56358;56.328;43.992;2023-04-05T02:28:35;100737.41;;;6.19;64.64
69247;BME280;56358;56.328;43.992;2023-04-05T02:30:35;100744.78;;;6.30;64.54
69247;BME280;56358;56.328;43.992;2023-04-05T02:32:36;100762.84;;;6.41;64.34
69247;BME280;56358;56.328;43.992;2023-04-05T02:34:37;100733.28;;;6.29;64.42
69247;BME280;56358;56.328;43.992;2023-04-05T02:36:40;100767.75;;;6.48;64.07
69247;BME280;56358;56.328;43.992;2023-04-05T02:38:41;100766.53;;;6.54;64.10
69247;BME280;56358;56.328;43.992;2023-04-05T02:40:42;100766.44;;;6.56;63.99
69247;BME280;56358;56.328;43.992;2023-04-05T02:42:42;100779.25;;;6.65;63.76
69247;BME280;56358;56.328;43.992;2023-04-05T02:44:43;100780.69;;;6.70;63.61
69247;BME280;56358;56.328;43.992;2023-04-05T02:46:43;100688.78;;;6.31;63.18
69247;BME280;56358;56.328;43.992;2023-04-05T02:48:44;100761.22;;;6.84;62.86
69247;BME280;56358;56.328;43.992;2023-04-05T02:50:49;100676.91;;;6.37;62.87
69247;BME280;56358;56.328;43.992;2023-04-05T02:52:50;100759.56;;;6.98;62.65
69247;BME280;56358;56.328;43.992;2023-04-05T02:54:51;100765.50;;;7.03;62.13
69247;BME280;56358;56.328;43.992;2023-04-05T02:56:51;100735.41;;;7.01;61.52
69247;BME280;56358;56.328;43.992;2023-04-05T02:58:54;100755.56;;;7.21;61.33
69247;BME280;56358;56.328;43.992;2023-04-05T03:00:54;100764.91;;;7.28;60.90
69247;BME280;56358;56.328;43.992;2023-04-05T03:02:55;100762.63;;;7.36;60.30
69247;BME280;56358;56.328;43.992;2023-04-05T03:04:56;100707.06;;;7.14;59.76
69247;BME280;56358;56.328;43.992;2023-04-05T03:06:56;100741.41;;;7.35;59.03
69247;BME280;56358;56.328;43.992;2023-04-05T03:08:57;100747.03;;;7.59;58.94
69247;BME280;56358;56.328;43.992;2023-04-05T03:10:58;100757.53;;;7.77;58.62
69247;BME280;56358;56.328;43.992;2023-04-05T03:12:58;100760.50;;;7.86;58.01
69247;BME280;56358;56.328;43.992;2023-04-05T03:14:59;100768.59;;;7.99;58.08
69247;BME280;56358;56.328;43.992;2023-04-05T03:17:00;100750.31;;;7.93;57.43
69247;BME280;56358;56.328;43.992;2023-04-05T03:19:00;100781.88;;;7.86;57.79
69247;BME280;56358;56.328;43.992;2023-04-05T03:21:01;100770.91;;;7.62;58.61
69247;BME280;56358;56.328;43.992;2023-04-05T03:23:03;100782.78;;;7.42;59.67
69247;BME280;56358;56.328;43.992;2023-04-05T03:25:04;100776.16;;;7.33;60.24
69247;BME280;56358;56.328;43.992;2023-04-05T03:27:05;100763.56;;;7.21;60.41
69247;BME280;56358;56.328;43.992;2023-04-05T03:29:06;100777.41;;;7.28;60.38
69247;BME280;56358;56.328;43.992;2023-04-05T03:31:07;100784.16;;;7.33;60.13
69247;BME280;56358;56.328;43.992;2023-04-05T03:33:07;100762.88;;;7.17;60.16
69247;BME280;56358;56.328;43.992;2023-04-05T03:35:08;100800.25;;;7.32;60.18
69247;BME280;56358;56.328;43.992;2023-04-05T03:37:09;100809.00;;;7.34;60.55
69247;BME280;56358;56.328;43.992;2023-04-05T03:39:11;100798.38;;;7.18;60.84
69247;BME280;56358;56.328;43.992;2023-04-05T03:41:12;100800.50;;;7.13;61.33
69247;BME280;56358;56.328;43.992;2023-04-05T03:43:14;100810.03;;;7.17;61.19
69247;BME280;56358;56.328;43.992;2023-04-05T03:45:15;100804.34;;;7.07;61.62
69247;BME280;56358;56.328;43.992;2023-04-05T03:47:15;100807.53;;;7.14;61.73
69247;BME280;56358;56.328;43.992;2023-04-05T03:49:16;100776.75;;;7.08;61.50
69247;BME280;56358;56.328;43.992;2023-04-05T03:51:17;100804.31;;;7.23;61.53
69247;BME280;56358;56.328;43.992;2023-04-05T03:53:18;100786.88;;;7.17;61.67
69247;BME280;56358;56.328;43.992;2023-04-05T03:55:19;100802.84;;;7.33;61.35
69247;BME280;56358;56.328;43.992;2023-04-05T03:57:19;100798.19;;;7.37;61.04
69247;BME280;56358;56.328;43.992;2023-04-05T03:59:20;100795.63;;;7.50;60.71
69247;BME280;56358;56.328;43.992;2023-04-05T04:01:20;100782.28;;;7.50;60.72
69247;BME280;56358;56.328;43.992;2023-04-05T04:03:21;100783.34;;;7.62;60.69
69247;BME280;56358;56.328;43.992;2023-04-05T04:05:22;100802.66;;;7.81;60.00
69247;BME280;56358;56.328;43.992;2023-04-05T04:07:22;100808.00;;;7.96;59.66
69247;BME280;56358;56.328;43.992;2023-04-05T04:09:23;100784.81;;;7.96;59.23
69247;BME280;56358;56.328;43.992;2023-04-05T04:11:24;100806.75;;;8.16;58.57
69247;BME280;56358;56.328;43.992;2023-04-05T04:13:25;100809.91;;;8.22;58.54
69247;BME280;56358;56.328;43.992;2023-04-05T04:15:25;100803.00;;;8.33;58.24
69247;BME280;56358;56.328;43.992;2023-04-05T04:17:27;100804.25;;;8.42;58.11
69247;BME280;56358;56.328;43.992;2023-04-05T04:19:28;100671.66;;;7.70;57.61
69247;BME280;56358;56.328;43.992;2023-04-05T04:21:28;100804.63;;;8.64;57.35
69247;BME280;56358;56.328;43.992;2023-04-05T04:23:32;100817.06;;;8.78;57.06
69247;BME280;56358;56.328;43.992;2023-04-05T04:25:37;100802.56;;;8.82;56.40
69247;BME280;56358;56.328;43.992;2023-04-05T04:27:42;100813.22;;;8.97;55.18
69247;BME280;56358;56.328;43.992;2023-04-05T04:29:43;100807.34;;;9.04;54.59
69247;BME280;56358;56.328;43.992;2023-04-05T04:31:46;100823.97;;;9.22;54.43
69247;BME280;56358;56.328;43.992;2023-04-05T04:33:49;100829.06;;;9.40;54.08
69247;BME280;56358;56.328;43.992;2023-04-05T04:35:50;100828.31;;;9.38;53.93
69247;BME280;56358;56.328;43.992;2023-04-05T04:38:00;100840.19;;;9.47;54.25
69247;BME280;56358;56.328;43.992;2023-04-05T04:40:01;100828.97;;;9.54;54.07
69247;BME280;56358;56.328;43.992;2023-04-05T04:42:05;100831.03;;;9.64;53.61
69247;BME280;56358;56.328;43.992;2023-04-05T04:44:09;100832.97;;;9.75;52.95
69247;BME280;56358;56.328;43.992;2023-04-05T04:46:14;100806.28;;;9.60;51.55
69247;BME280;56358;56.328;43.992;2023-04-05T04:48:18;100836.28;;;9.91;51.85
69247;BME280;56358;56.328;43.992;2023-04-05T04:50:19;100829.88;;;9.94;52.13
69247;BME280;56358;56.328;43.992;2023-04-05T04:52:20;100827.00;;;9.97;52.34
69247;BME280;56358;56.328;43.992;2023-04-05T04:54:20;100836.00;;;9.96;52.55
69247;BME280;56358;56.328;43.992;2023-04-05T04:56:21;100766.88;;;9.49;52.80
69247;BME280;56358;56.328;43.992;2023-04-05T04:58:22;100817.75;;;9.75;53.21
69247;BME280;56358;56.328;43.992;2023-04-05T05:00:23;100855.38;;;9.86;53.03
69247;BME280;56358;56.328;43.992;2023-04-05T05:02:25;100826.88;;;9.85;52.51
69247;BME280;56358;56.328;43.992;2023-04-05T05:04:26;100846.06;;;9.92;51.92
69247;BME280;56358;56.328;43.992;2023-04-05T05:06:26;100847.13;;;9.89;51.68
69247;BME280;56358;56.328;43.992;2023-04-05T05:08:29;100832.56;;;9.81;52.05
69247;BME280;56358;56.328;43.992;2023-04-05T05:10:30;100838.75;;;9.81;52.32
69247;BME280;56358;56.328;43.992;2023-04-05T05:12:30;100857.28;;;9.84;51.91
69247;BME280;56358;56.328;43.992;2023-04-05T05:14:32;100819.56;;;9.62;51.95
69247;BME280;56358;56.328;43.992;2023-04-05T05:16:32;100841.44;;;9.81;51.87
69247;BME280;56358;56.328;43.992;2023-04-05T05:18:33;100845.19;;;9.79;52.39
69247;BME280;56358;56.328;43.992;2023-04-05T05:20:35;100840.41;;;9.97;52.12
69247;BME280;56358;56.328;43.992;2023-04-05T05:22:37;100786.72;;;9.72;51.68
69247;BME280;56358;56.328;43.992;2023-04-05T05:24:38;100840.59;;;10.06;50.85
69247;BME280;56358;56.328;43.992;2023-04-05T05:26:39;100847.44;;;9.98;50.59
69247;BME280;56358;56.328;43.992;2023-04-05T05:28:39;100776.09;;;9.58;50.76
69247;BME280;56358;56.328;43.992;2023-04-05T05:30:40;100781.03;;;9.51;50.87
69247;BME280;56358;56.328;43.992;2023-04-05T05:32:41;100841.13;;;9.99;50.94
69247;BME280;56358;56.328;43.992;2023-04-05T05:34:42;100782.63;;;9.67;50.42
69247;BME280;56358;56.328;43.992;2023-04-05T05:36:44;100849.91;;;10.14;50.39
69247;BME280;56358;56.328;43.992;2023-04-05T05:38:44;100847.66;;;10.20;50.34
69247;BME280;56358;56.328;43.992;2023-04-05T05:40:46;100796.69;;;9.83;49.90
69247;BME280;56358;56.328;43.992;2023-04-05T05:42:47;100856.56;;;10.21;49.73
69247;BME280;56358;56.328;43.992;2023-04-05T05:44:47;100850.31;;;10.20;50.21
69247;BME280;56358;56.328;43.992;2023-04-05T05:46:48;100844.25;;;10.18;50.36
69247;BME280;56358;56.328;43.992;2023-04-05T05:48:48;100750.50;;;9.67;50.04
69247;BME280;56358;56.328;43.992;2023-04-05T05:50:49;100852.94;;;10.35;50.47
69247;BME280;56358;56.328;43.992;2023-04-05T05:52:50;100831.38;;;10.23;50.39
69247;BME280;56358;56.328;43.992;2023-04-05T05:54:51;100786.78;;;10.10;50.23
69247;BME280;56358;56.328;43.992;2023-04-05T05:56:52;100856.03;;;10.54;50.51
69247;BME280;56358;56.328;43.992;2023-04-05T05:58:52;100857.91;;;10.65;49.91
69247;BME280;56358;56.328;43.992;2023-04-05T06:00:53;100823.78;;;10.67;49.88
69247;BME280;56358;56.328;43.992;2023-04-05T06:02:55;100863.22;;;10.91;49.28
69247;BME280;56358;56.328;43.992;2023-04-05T06:04:58;100852.66;;;11.01;49.20
69247;BME280;56358;56.328;43.992;2023-04-05T06:06:59;100852.38;;;11.17;48.81
69247;BME280;56358;56.328;43.992;2023-04-05T06:09:01;100781.25;;;10.87;48.39
69247;BME280;56358;56.328;43.992;2023-04-05T06:11:02;100856.59;;;11.32;47.41
69247;BME280;56358;56.328;43.992;2023-04-05T06:13:03;100857.63;;;11.43;47.53
69247;BME280;56358;56.328;43.992;2023-04-05T06:15:04;100737.44;;;10.75;47.36
69247;BME280;56358;56.328;43.992;2023-04-05T06:17:05;100866.47;;;11.56;46.82
69247;BME280;56358;56.328;43.992;2023-04-05T06:19:05;100863.16;;;11.64;46.88
69247;BME280;56358;56.328;43.992;2023-04-05T06:21:06;100864.31;;;11.72;46.63
69247;BME280;56358;56.328;43.992;2023-04-05T06:23:07;100808.78;;;11.37;46.28
69247;BME280;56358;56.328;43.992;2023-04-05T06:25:08;100847.81;;;11.66;46.24
69247;BME280;56358;56.328;43.992;2023-04-05T06:27:09;100868.34;;;11.78;45.76
69247;BME280;56358;56.328;43.992;2023-04-05T06:29:10;100786.69;;;11.34;46.05
69247;BME280;56358;56.328;43.992;2023-04-05T06:31:11;100877.16;;;11.91;45.85
69247;BME280;56358;56.328;43.992;2023-04-05T06:33:12;100855.69;;;11.91;45.56
69247;BME280;56358;56.328;43.992;2023-04-05T06:35:12;100867.09;;;12.06;45.36
69247;BME280;56358;56.328;43.992;2023-04-05T06:37:13;100854.91;;;12.14;45.05
69247;BME280;56358;56.328;43.992;2023-04-05T06:39:14;100867.88;;;12.31;44.71
69247;BME280;56358;56.328;43.992;2023-04-05T06:41:14;100862.47;;;12.43;44.51
69247;BME280;56358;56.328;43.992;2023-04-05T06:43:15;100863.09;;;12.46;43.49
69247;BME280;56358;56.328;43.992;2023-04-05T06:45:16;100878.63;;;12.54;43.94
69247;BME280;56358;56.328;43.992;2023-04-05T06:47:18;100801.63;;;12.19;43.95
69247;BME280;56358;56.328;43.992;2023-04-05T06:49:19;100866.38;;;12.61;43.85
69247;BME280;56358;56.328;43.992;2023-04-05T06:51:19;100862.94;;;12.70;43.74
69247;BME280;56358;56.328;43.992;2023-04-05T06:53:20;100784.66;;;12.30;43.08
69247;BME280;56358;56.328;43.992;2023-04-05T06:55:21;100872.47;;;12.86;43.31
69247;BME280;56358;56.328;43.992;2023-04-05T06:57:22;100862.78;;;12.95;43.36
69247;BME280;56358;56.328;43.992;2023-04-05T06:59:23;100863.75;;;13.05;42.90
69247;BME280;56358;56.328;43.992;2023-04-05T07:01:23;100859.69;;;13.11;42.92
69247;BME280;56358;56.328;43.992;2023-04-05T07:03:25;100842.69;;;13.10;42.64
69247;BME280;56358;56.328;43.992;2023-04-05T07:05:26;100876.41;;;13.25;42.51
69247;BME280;56358;56.328;43.992;2023-04-05T07:07:26;100858.66;;;13.23;42.23
69247;BME280;56358;56.328;43.992;2023-04-05T07:09:27;100861.63;;;13.20;42.40
69247;BME280;56358;56.328;43.992;2023-04-05T07:11:30;100838.53;;;13.06;42.03
69247;BME280;56358;56.328;43.992;2023-04-05T07:13:33;100807.78;;;12.87;42.59
69247;BME280;56358;56.328;43.992;2023-04-05T07:15:34;100789.44;;;12.81;42.28
69247;BME280;56358;56.328;43.992;2023-04-05T07:17:35;100846.31;;;13.20;42.40
69247;BME280;56358;56.328;43.992;2023-04-05T07:19:35;100864.97;;;13.45;42.33
69247;BME280;56358;56.328;43.992;2023-04-05T07:21:36;100792.44;;;13.32;42.31
69247;BME280;56358;56.328;43.992;2023-04-05T07:23:37;100859.81;;;13.95;42.09
69247;BME280;56358;56.328;43.992;2023-04-05T07:25:41;100860.50;;;14.18;41.47
69247;BME280;56358;56.328;43.992;2023-04-05T07:27:41;100848.09;;;14.27;41.17
69247;BME280;56358;56.328;43.992;2023-04-05T07:29:42;100863.09;;;14.51;40.92
69247;BME280;56358;56.328;43.992;2023-04-05T07:31:43;100864.59;;;14.65;40.68
69247;BME280;56358;56.328;43.992;2023-04-05T07:33:44;100855.38;;;14.77;40.40
69247;BME280;56358;56.328;43.992;2023-04-05T07:35:50;100854.41;;;14.88;40.26
69247;BME280;56358;56.328;43.992;2023-04-05T07:37:51;100854.19;;;15.11;39.86
69247;BME280;56358;56.328;43.992;2023-04-05T07:39:52;100816.91;;;14.95;39.47
69247;BME280;56358;56.328;43.992;2023-04-05T07:41:52;100858.03;;;15.37;39.58
69247;BME280;56358;56.328;43.992;2023-04-05T07:43:53;100804.72;;;15.20;39.19
69247;BME280;56358;56.328;43.992;2023-04-05T07:46:03;100849.91;;;15.67;38.52
69247;BME280;56358;56.328;43.992;2023-04-05T07:48:04;100861.44;;;15.88;37.92
69247;BME280;56358;56.328;43.992;2023-04-05T07:50:05;100866.44;;;15.93;37.73
69247;BME280;56358;56.328;43.992;2023-04-05T07:52:06;100871.13;;;16.01;37.82
69247;BME280;56358;56.328;43.992;2023-04-05T07:54:07;100850.75;;;16.06;37.46
69247;BME280;56358;56.328;43.992;2023-04-05T07:56:10;100860.41;;;16.09;37.45
69247;BME280;56358;56.328;43.992;2023-04-05T07:58:11;100861.97;;;16.02;37.50
69247;BME280;56358;56.328;43.992;2023-04-05T08:00:12;100862.13;;;16.00;37.81
69247;BME280;56358;56.328;43.992;2023-04-05T08:02:14;100839.41;;;15.83;37.96
69247;BME280;56358;56.328;43.992;2023-04-05T08:04:14;100879.50;;;15.98;37.62
69247;BME280;56358;56.328;43.992;2023-04-05T08:06:15;100806.13;;;15.53;37.48
69247;BME280;56358;56.328;43.992;2023-04-05T08:08:19;100854.16;;;15.79;38.10
69247;BME280;56358;56.328;43.992;2023-04-05T08:10:19;100868.84;;;15.86;38.00
69247;BME280;56358;56.328;43.992;2023-04-05T08:12:20;100865.16;;;15.87;38.16
69247;BME280;56358;56.328;43.992;2023-04-05T08:14:20;100881.66;;;15.94;37.77
69247;BME280;56358;56.328;43.992;2023-04-05T08:16:21;100864.69;;;16.02;37.81
69247;BME280;56358;56.328;43.992;2023-04-05T08:18:22;100865.69;;;16.11;37.49
69247;BME280;56358;56.328;43.992;2023-04-05T08:20:22;100862.66;;;16.14;37.63
69247;BME280;56358;56.328;43.992;2023-04-05T08:22:27;100860.44;;;15.89;37.80
69247;BME280;56358;56.328;43.992;2023-04-05T08:24:28;100862.72;;;15.84;38.12
69247;BME280;56358;56.328;43.992;2023-04-05T08:26:29;100857.72;;;15.70;38.44
69247;BME280;56358;56.328;43.992;2023-04-05T08:28:29;100867.69;;;15.79;38.53
69247;BME280;56358;56.328;43.992;2023-04-05T08:30:30;100858.47;;;15.82;38.72
69247;BME280;56358;56.328;43.992;2023-04-05T08:32:31;100857.31;;;15.84;38.20
69247;BME280;56358;56.328;43.992;2023-04-05T08:34:32;100862.59;;;15.96;38.35
69247;BME280;56358;56.328;43.992;2023-04-05T08:36:33;100843.25;;;15.90;38.07
69247;BME280;56358;56.328;43.992;2023-04-05T08:38:33;100860.31;;;16.01;37.69
69247;BME280;56358;56.328;43.992;2023-04-05T08:40:43;100848.75;;;15.99;37.96
69247;BME280;56358;56.328;43.992;2023-04-05T08:42:51;100853.88;;;16.02;37.69
69247;BME280;56358;56.328;43.992;2023-04-05T08:44:56;100851.91;;;15.94;37.95
69247;BME280;56358;56.328;43.992;2023-04-05T08:46:59;100865.28;;;15.96;37.66
69247;BME280;56358;56.328;43.992;2023-04-05T08:49:04;100863.56;;;15.95;37.55
69247;BME280;56358;56.328;43.992;2023-04-05T08:51:06;100848.06;;;15.97;37.49
69247;BME280;56358;56.328;43.992;2023-04-05T08:53:08;100853.75;;;15.94;36.73
69247;BME280;56358;56.328;43.992;2023-04-05T08:55:12;100851.16;;;16.02;36.47
69247;BME280;56358;56.328;43.992;2023-04-05T08:57:13;100862.97;;;16.11;36.38
69247;BME280;56358;56.328;43.992;2023-04-05T08:59:15;100849.59;;;16.09;36.37
69247;BME280;56358;56.328;43.992;2023-04-05T09:01:17;100861.22;;;16.29;36.22
69247;BME280;56358;56.328;43.992;2023-04-05T09:03:21;100858.19;;;16.70;35.17
69247;BME280;56358;56.328;43.992;2023-04-05T09:05:23;100858.16;;;17.25;34.71
69247;BME280;56358;56.328;43.992;2023-04-05T09:07:25;100849.59;;;17.74;33.67
69247;BME280;56358;56.328;43.992;2023-04-05T09:09:31;100862.44;;;18.43;32.10
69247;BME280;56358;56.328;43.992;2023-04-05T09:11:34;100859.47;;;18.63;31.66
69247;BME280;56358;56.328;43.992;2023-04-05T09:13:35;100856.94;;;18.96;31.78
69247;BME280;56358;56.328;43.992;2023-04-05T09:15:36;100841.53;;;19.29;30.97
69247;BME280;56358;56.328;43.992;2023-04-05T09:17:38;100865.53;;;19.83;30.39
69247;BME280;56358;56.328;43.992;2023-04-05T09:19:41;100863.09;;;20.13;29.25
69247;BME280;56358;56.328;43.992;2023-04-05T09:22:03;100860.16;;;20.39;29.15
69247;BME280;56358;56.328;43.992;2023-04-05T09:24:04;100854.44;;;20.74;28.95
69247;BME280;56358;56.328;43.992;2023-04-05T09:28:18;100845.75;;;21.56;27.90
69247;BME280;56358;56.328;43.992;2023-04-05T09:30:23;100860.81;;;21.90;26.84
69247;BME280;56358;56.328;43.992;2023-04-05T09:32:25;100869.44;;;22.17;27.02
69247;BME280;56358;56.328;43.992;2023-04-05T09:34:32;100810.47;;;22.08;26.42
69247;BME280;56358;56.328;43.992;2023-04-05T09:36:34;100858.53;;;22.47;26.11
69247;BME280;56358;56.328;43.992;2023-04-05T09:38:42;100856.66;;;22.63;25.71
69247;BME280;56358;56.328;43.992;2023-04-05T09:40:47;100852.69;;;22.65;25.60
69247;BME280;56358;56.328;43.992;2023-04-05T09:42:48;100853.44;;;22.59;25.53
69247;BME280;56358;56.328;43.992;2023-04-05T09:44:56;100872.28;;;22.39;25.18
69247;BME280;56358;56.328;43.992;2023-04-05T09:47:14;100867.34;;;22.19;25.34
69247;BME280;56358;56.328;43.992;2023-04-05T09:49:30;100866.91;;;22.31;25.93
69247;BME280;56358;56.328;43.992;2023-04-05T09:51:33;100867.94;;;22.30;25.82
69247;BME280;56358;56.328;43.992;2023-04-05T09:53:34;100810.66;;;21.91;26.21
69247;BME280;56358;56.328;43.992;2023-04-05T09:55:35;100869.75;;;22.37;26.11
69247;BME280;56358;56.328;43.992;2023-04-05T09:57:38;100860.75;;;22.14;26.73
69247;BME280;56358;56.328;43.992;2023-04-05T09:59:39;100857.41;;;21.88;27.15
69247;BME280;56358;56.328;43.992;2023-04-05T10:01:43;100868.53;;;21.87;27.23
69247;BME280;56358;56.328;43.992;2023-04-05T10:03:47;100860.41;;;21.79;27.46
69247;BME280;56358;56.328;43.992;2023-04-05T10:05:54;100860.34;;;21.40;27.99
69247;BME280;56358;56.328;43.992;2023-04-05T10:07:55;100867.13;;;21.21;28.46
69247;BME280;56358;56.328;43.992;2023-04-05T10:09:56;100866.28;;;20.89;29.27
69247;BME280;56358;56.328;43.992;2023-04-05T10:11:57;100861.59;;;20.75;29.55
69247;BME280;56358;56.328;43.992;2023-04-05T10:14:00;100860.41;;;20.69;29.55
69247;BME280;56358;56.328;43.992;2023-04-05T10:16:05;100866.13;;;20.83;29.57
69247;BME280;56358;56.328;43.992;2023-04-05T10:18:14;100869.31;;;20.95;29.60
69247;BME280;56358;56.328;43.992;2023-04-05T10:20:22;100853.47;;;21.21;29.39
69247;BME280;56358;56.328;43.992;2023-04-05T10:24:53;100862.25;;;21.63;29.00
69247;BME280;56358;56.328;43.992;2023-04-05T10:27:05;100869.78;;;22.14;28.37
69247;BME280;56358;56.328;43.992;2023-04-05T10:29:11;100868.44;;;22.63;27.59
69247;BME280;56358;56.328;43.992;2023-04-05T10:31:24;100859.53;;;22.91;27.17
69247;BME280;56358;56.328;43.992;2023-04-05T10:33:44;100856.34;;;23.09;26.66
69247;BME280;56358;56.328;43.992;2023-04-05T10:40:11;100858.09;;;24.25;25.12
69247;BME280;56358;56.328;43.992;2023-04-05T10:42:20;100862.06;;;24.57;24.67
69247;BME280;56358;56.328;43.992;2023-04-05T10:44:21;100852.50;;;24.82;24.63
69247;BME280;56358;56.328;43.992;2023-04-05T10:46:23;100858.25;;;25.00;24.19
69247;BME280;56358;56.328;43.992;2023-04-05T10:50:52;100856.50;;;25.61;23.70
69247;BME280;56358;56.328;43.992;2023-04-05T10:52:55;100843.84;;;25.67;22.73